createdAt,value
2022-12-15T00:02:15.219Z,90.88
2022-12-15T00:05:00.396Z,90.28
2022-12-15T00:07:46.461Z,89.35
2022-12-15T00:10:31.284Z,87.83
2022-12-15T00:13:16.159Z,85.75
2022-12-15T00:16:01.654Z,87.48
2022-12-15T00:18:47.049Z,88.09
2022-12-15T00:21:32.448Z,85.97
2022-12-15T00:24:19.069Z,89.09
2022-12-15T00:27:03.859Z,88.71
2022-12-15T00:29:48.703Z,88.55
2022-12-15T00:32:33.992Z,89.28
2022-12-15T00:35:18.784Z,87.02
2022-12-15T00:38:03.680Z,87.86
2022-12-15T00:40:32.693Z,88.35
2022-12-15T00:43:00.350Z,87.45
2022-12-15T00:45:48.053Z,86.33
2022-12-15T00:48:14.761Z,87.28
2022-12-15T00:50:54.461Z,85.42
2022-12-15T00:53:40.480Z,86.33
2022-12-15T00:56:27.027Z,89.13
2022-12-15T00:59:11.845Z,89.86
2022-12-15T01:01:57.198Z,89.08
2022-12-15T01:04:42.330Z,89.41
2022-12-15T01:07:27.816Z,90.08
2022-12-15T01:10:12.687Z,87.51
2022-12-15T01:12:58.829Z,90.22
2022-12-15T01:15:43.694Z,90.34
2022-12-15T01:18:28.923Z,88.38
2022-12-15T01:20:57.519Z,89.04
2022-12-15T01:23:25.248Z,87.86
2022-12-15T01:25:53.243Z,90.85
2022-12-15T01:28:23.045Z,91.10
2022-12-15T01:30:50.644Z,90.69
2022-12-15T01:33:18.381Z,89.04
2022-12-15T01:35:45.839Z,88.32
2022-12-15T01:38:13.468Z,87.62
2022-12-15T01:40:46.039Z,85.14
2022-12-15T01:43:14.269Z,83.70
2022-12-15T01:45:54.201Z,83.76
2022-12-15T01:48:24.171Z,87.09
2022-12-15T01:50:59.001Z,88.43
2022-12-15T01:53:27.239Z,88.12
2022-12-15T01:55:55.225Z,90.29
2022-12-15T01:58:22.675Z,89.29
2022-12-15T02:00:50.233Z,91.47
2022-12-15T02:03:19.950Z,91.37
2022-12-15T02:05:48.177Z,90.21
2022-12-15T02:08:15.909Z,88.02
2022-12-15T02:10:57.765Z,86.74
2022-12-15T02:13:27.113Z,88.95
2022-12-15T02:15:55.913Z,89.08
2022-12-15T02:18:25.699Z,89.99
2022-12-15T02:20:57.726Z,88.14
2022-12-15T02:24:19.170Z,90.57
2022-12-15T02:27:04.334Z,88.43
2022-12-15T02:29:44.396Z,89.29
2022-12-15T02:32:14.446Z,90.22
2022-12-15T02:34:45.707Z,89.43
2022-12-15T02:37:16.188Z,92.67
2022-12-15T02:39:44.233Z,90.82
2022-12-15T02:42:12.276Z,89.58
2022-12-15T02:44:40.605Z,92.92
2022-12-15T02:47:13.716Z,91.32
2022-12-15T02:49:50.564Z,88.30
2022-12-15T02:52:27.909Z,89.74
2022-12-15T02:54:59.430Z,90.35
2022-12-15T02:57:28.181Z,92.77
2022-12-15T02:59:59.371Z,93.37
2022-12-15T03:02:31.111Z,93.88
2022-12-15T03:04:58.678Z,93.33
2022-12-15T03:07:27.714Z,90.35
2022-12-15T03:09:56.052Z,90.83
2022-12-15T03:12:23.773Z,90.01
2022-12-15T03:14:51.411Z,88.40
2022-12-15T03:17:19.088Z,89.58
2022-12-15T03:19:49.716Z,89.61
2022-12-15T03:22:17.662Z,87.40
2022-12-15T03:24:45.180Z,89.96
2022-12-15T03:27:12.620Z,87.73
2022-12-15T03:29:40.180Z,86.35
2022-12-15T03:32:08.569Z,87.06
2022-12-15T03:34:36.293Z,87.92
2022-12-15T03:37:05.407Z,87.25
2022-12-15T03:39:33.233Z,92.22
2022-12-15T03:42:00.918Z,88.39
2022-12-15T03:44:28.610Z,87.71
2022-12-15T03:47:02.786Z,87.62
2022-12-15T03:49:30.875Z,88.79
2022-12-15T03:51:58.402Z,86.54
2022-12-15T03:54:27.304Z,89.17
2022-12-15T03:56:54.993Z,89.54
2022-12-15T03:59:22.709Z,91.12
2022-12-15T04:01:50.495Z,93.56
2022-12-15T04:04:18.252Z,92.17
2022-12-15T04:06:46.151Z,90.95
2022-12-15T04:09:13.810Z,86.75
2022-12-15T04:11:42.786Z,86.91
2022-12-15T04:14:10.309Z,86.55
2022-12-15T04:16:37.805Z,86.55
2022-12-15T04:19:23.023Z,88.29
2022-12-15T04:21:50.688Z,92.65
2022-12-15T04:24:36.296Z,93.81
2022-12-15T04:27:22.380Z,92.48
2022-12-15T04:30:07.365Z,93.04
2022-12-15T04:32:52.625Z,95.15
2022-12-15T04:35:38.069Z,90.85
2022-12-15T04:38:23.437Z,89.95
2022-12-15T04:41:08.810Z,90.54
2022-12-15T04:43:55.456Z,93.86
2022-12-15T04:46:40.770Z,93.24
2022-12-15T04:49:25.963Z,93.70
2022-12-15T04:52:10.899Z,96.19
2022-12-15T04:54:55.754Z,93.36
2022-12-15T04:57:41.263Z,90.99
2022-12-15T05:00:29.341Z,92.19
2022-12-15T05:03:18.344Z,92.08
2022-12-15T05:06:04.138Z,92.42
2022-12-15T05:08:50.037Z,92.03
2022-12-15T05:11:35.627Z,92.94
2022-12-15T05:14:21.069Z,89.78
2022-12-15T05:17:07.764Z,91.42
2022-12-15T05:19:52.643Z,93.23
2022-12-15T05:22:37.566Z,92.78
2022-12-15T05:25:22.963Z,95.23
2022-12-15T05:28:08.430Z,97.08
2022-12-15T05:30:53.728Z,98.15
2022-12-15T05:33:22.859Z,98.58
2022-12-15T05:35:51.057Z,93.95
2022-12-15T05:38:19.364Z,96.81
2022-12-15T05:40:47.085Z,96.21
2022-12-15T05:43:14.716Z,96.73
2022-12-15T05:45:42.438Z,98.04
2022-12-15T05:48:10.129Z,97.75
2022-12-15T05:50:39.170Z,97.86
2022-12-15T05:53:06.929Z,97.84
2022-12-15T05:55:34.593Z,95.63
2022-12-15T05:58:02.408Z,96.66
2022-12-15T06:00:30.107Z,96.26
2022-12-15T06:02:59.110Z,97.42
2022-12-15T06:05:26.876Z,96.23
2022-12-15T06:07:56.145Z,98.23
2022-12-15T06:10:23.641Z,99.02
2022-12-15T06:12:51.324Z,96.52
2022-12-15T06:15:18.791Z,95.59
2022-12-15T06:17:46.228Z,96.69
2022-12-15T06:20:17.760Z,95.07
2022-12-15T06:22:49.892Z,98.19
2022-12-15T06:25:19.361Z,99.53
2022-12-15T06:27:47.051Z,99.38
2022-12-15T06:30:16.203Z,97.65
2022-12-15T06:32:43.934Z,94.24
2022-12-15T06:35:11.654Z,94.52
2022-12-15T06:37:39.544Z,93.75
2022-12-15T06:40:07.694Z,93.97
2022-12-15T06:42:36.512Z,95.30
2022-12-15T06:45:04.389Z,95.03
2022-12-15T06:47:32.653Z,96.81
2022-12-15T06:50:00.303Z,100.00
2022-12-15T06:52:27.929Z,100.00
2022-12-15T06:54:55.906Z,100.00
2022-12-15T06:57:23.581Z,99.00
2022-12-15T06:59:52.662Z,98.26
2022-12-15T07:02:26.892Z,97.51
2022-12-15T07:04:56.443Z,97.05
2022-12-15T07:07:24.234Z,97.52
2022-12-15T07:09:51.919Z,95.98
2022-12-15T07:12:19.674Z,96.15
2022-12-15T07:14:53.019Z,96.12
2022-12-15T07:17:22.517Z,97.48
2022-12-15T07:19:50.226Z,96.46
2022-12-15T07:22:17.723Z,96.54
2022-12-15T07:24:45.961Z,96.30
2022-12-15T07:27:13.458Z,97.26
2022-12-15T07:29:41.276Z,96.22
2022-12-15T07:32:08.950Z,94.65
2022-12-15T07:34:38.004Z,94.07
2022-12-15T07:37:05.781Z,98.64
2022-12-15T07:39:33.405Z,100.00
2022-12-15T07:42:01.257Z,99.05
2022-12-15T07:44:29.619Z,99.64
2022-12-15T07:46:57.266Z,97.53
2022-12-15T07:49:25.109Z,94.60
2022-12-15T07:51:56.372Z,97.17
2022-12-15T07:54:24.016Z,96.77
2022-12-15T07:56:51.661Z,97.49
2022-12-15T07:59:19.634Z,97.56
2022-12-15T08:01:47.767Z,97.68
2022-12-15T08:04:15.790Z,97.16
2022-12-15T08:06:43.447Z,95.25
2022-12-15T08:09:13.045Z,93.58
2022-12-15T08:11:40.775Z,92.20
2022-12-15T08:14:15.042Z,94.54
2022-12-15T08:16:45.316Z,94.63
2022-12-15T08:19:13.372Z,97.44
2022-12-15T08:21:41.233Z,98.95
2022-12-15T08:24:09.156Z,98.50
2022-12-15T08:26:39.089Z,95.50
2022-12-15T08:31:56.041Z,96.25
2022-12-15T08:34:23.518Z,93.54
2022-12-15T08:36:51.794Z,92.92
2022-12-15T08:39:20.419Z,93.96
2022-12-15T08:41:49.511Z,94.45
2022-12-15T08:44:17.364Z,96.78
2022-12-15T08:46:45.100Z,97.99
2022-12-15T08:49:16.636Z,96.76
2022-12-15T08:51:49.971Z,95.49
2022-12-15T08:54:19.118Z,94.55
2022-12-15T08:56:46.798Z,95.15
2022-12-15T08:59:15.903Z,94.43
2022-12-15T09:01:43.814Z,93.65
2022-12-15T09:04:11.804Z,94.15
2022-12-15T09:06:39.520Z,93.57
2022-12-15T09:09:09.599Z,95.68
2022-12-15T09:11:37.330Z,96.16
2022-12-15T09:14:05.243Z,96.19
2022-12-15T09:16:34.439Z,95.09
2022-12-15T09:19:02.148Z,91.97
2022-12-15T09:21:31.997Z,90.97
2022-12-15T09:24:01.948Z,91.64
2022-12-15T09:26:32.017Z,91.71
2022-12-15T09:29:00.372Z,92.37
2022-12-15T09:31:28.852Z,95.49
2022-12-15T09:33:58.934Z,95.81
2022-12-15T09:36:27.679Z,94.19
2022-12-15T09:38:55.924Z,91.15
2022-12-15T09:41:25.464Z,92.59
2022-12-15T09:43:56.723Z,91.16
2022-12-15T09:46:29.217Z,91.89
2022-12-15T09:48:59.500Z,91.42
2022-12-15T09:51:33.536Z,89.57
2022-12-15T09:54:01.837Z,92.37
2022-12-15T09:56:38.774Z,91.54
2022-12-15T09:59:15.660Z,91.82
2022-12-15T10:01:47.099Z,91.35
2022-12-15T10:04:22.549Z,89.34
2022-12-15T10:06:51.888Z,88.07
2022-12-15T10:09:21.573Z,88.63
2022-12-15T10:11:52.901Z,89.59
2022-12-15T10:14:28.427Z,90.40
2022-12-15T10:17:03.116Z,89.11
2022-12-15T10:19:38.377Z,88.99
2022-12-15T10:22:06.286Z,88.92
2022-12-15T10:27:24.873Z,91.96
2022-12-15T10:29:53.353Z,91.75
2022-12-15T10:32:21.681Z,92.20
2022-12-15T10:34:50.728Z,89.31
2022-12-15T10:37:20.291Z,89.71
2022-12-15T10:39:50.077Z,91.44
2022-12-15T10:42:21.457Z,90.40
2022-12-15T10:44:51.224Z,87.89
2022-12-15T10:47:21.868Z,87.59
2022-12-15T10:49:51.253Z,85.09
2022-12-15T10:52:24.262Z,83.91
2022-12-15T10:54:54.309Z,87.37
2022-12-15T10:57:27.494Z,86.22
2022-12-15T10:59:55.676Z,84.06
2022-12-15T11:02:36.655Z,87.03
2022-12-15T11:05:16.589Z,89.74
2022-12-15T11:07:47.649Z,88.12
2022-12-15T11:10:19.089Z,85.33
2022-12-15T11:12:58.746Z,87.74
2022-12-15T11:15:45.480Z,85.75
2022-12-15T11:18:28.116Z,82.18
2022-12-15T11:21:01.855Z,83.72
2022-12-15T11:23:38.709Z,82.74
2022-12-15T11:26:16.065Z,81.81
2022-12-15T11:28:46.874Z,81.55
2022-12-15T11:31:21.398Z,82.80
2022-12-15T11:33:49.289Z,81.20
2022-12-15T11:36:25.478Z,85.18
2022-12-15T11:38:56.408Z,85.63
2022-12-15T11:41:37.519Z,82.71
2022-12-15T11:44:16.939Z,84.61
2022-12-15T11:46:48.534Z,83.40
2022-12-15T11:49:37.609Z,84.29
2022-12-15T11:52:15.349Z,84.63
2022-12-15T11:54:48.327Z,81.75
2022-12-15T11:57:40.493Z,80.47
2022-12-15T12:00:10.033Z,83.60
2022-12-15T12:02:48.867Z,80.93
2022-12-15T12:05:33.868Z,81.23
2022-12-15T12:08:11.289Z,83.51
2022-12-15T12:10:43.905Z,84.48
2022-12-15T12:13:19.312Z,81.20
2022-12-15T12:15:51.800Z,81.17
2022-12-15T12:18:22.823Z,80.96
2022-12-15T12:20:53.030Z,80.02
2022-12-15T12:23:25.700Z,79.83
2022-12-15T12:26:03.183Z,82.16
2022-12-15T12:28:38.533Z,85.20
2022-12-15T12:31:07.180Z,80.47
2022-12-15T12:33:40.154Z,82.57
2022-12-15T12:36:12.073Z,82.35
2022-12-15T12:38:46.255Z,85.53
2022-12-15T12:41:24.138Z,86.70
2022-12-15T12:43:55.519Z,87.66
2022-12-15T12:46:26.422Z,84.32
2022-12-15T12:48:56.712Z,80.65
2022-12-15T12:51:27.215Z,80.28
2022-12-15T12:53:56.472Z,83.57
2022-12-15T12:56:37.441Z,84.51
2022-12-15T12:59:08.833Z,82.99
2022-12-15T13:01:38.056Z,82.09
2022-12-15T13:04:08.545Z,84.21
2022-12-15T13:07:02.485Z,83.60
2022-12-15T13:09:42.659Z,80.32
2022-12-15T13:12:51.109Z,82.05
2022-12-15T13:15:36.423Z,82.87
2022-12-15T13:18:08.781Z,83.62
2022-12-15T13:20:38.061Z,79.50
2022-12-15T13:23:36.715Z,79.72
2022-12-15T13:26:15.943Z,77.60
2022-12-15T13:28:46.232Z,78.45
2022-12-15T13:31:43.018Z,80.17
2022-12-15T13:34:17.097Z,80.64
2022-12-15T13:36:59.132Z,81.81
2022-12-15T13:39:55.297Z,80.08
2022-12-15T13:42:48.280Z,80.99
2022-12-15T13:45:48.735Z,79.83
2022-12-15T13:48:25.437Z,83.30
2022-12-15T13:50:59.078Z,83.88
2022-12-15T13:53:27.996Z,83.44
2022-12-15T13:56:05.779Z,80.00
2022-12-15T13:58:40.865Z,81.69
2022-12-15T14:01:21.290Z,81.79
2022-12-15T14:04:06.711Z,83.85
2022-12-15T14:06:40.048Z,84.02
2022-12-15T14:09:08.331Z,84.71
2022-12-15T14:11:52.514Z,84.11
2022-12-15T14:14:25.412Z,87.89
2022-12-15T14:16:55.662Z,87.16
2022-12-15T14:19:23.560Z,90.81
2022-12-15T14:21:53.055Z,88.72
2022-12-15T14:24:41.443Z,86.34
2022-12-15T14:27:09.139Z,84.23
2022-12-15T14:29:38.169Z,82.92
2022-12-15T14:32:06.584Z,84.13
2022-12-15T14:34:36.837Z,87.23
2022-12-15T14:37:07.692Z,85.74
2022-12-15T14:39:37.464Z,85.29
2022-12-15T14:42:06.152Z,84.01
2022-12-15T14:44:39.125Z,85.71
2022-12-15T14:47:18.058Z,85.58
2022-12-15T14:49:46.641Z,84.16
2022-12-15T14:52:24.724Z,84.25
2022-12-15T14:54:57.606Z,85.52
2022-12-15T14:57:27.175Z,88.10
2022-12-15T14:59:54.944Z,88.12
2022-12-15T15:02:26.869Z,89.84
2022-12-15T15:05:02.883Z,92.21
2022-12-15T15:07:31.785Z,88.06
2022-12-15T15:10:00.204Z,88.14
2022-12-15T15:12:42.072Z,89.46
2022-12-15T15:15:16.444Z,87.38
2022-12-15T15:17:49.789Z,87.27
2022-12-15T15:20:23.246Z,87.47
2022-12-15T15:23:05.779Z,87.58
2022-12-15T15:25:39.828Z,90.46
2022-12-15T15:28:16.430Z,91.50
2022-12-15T15:30:48.183Z,88.13
2022-12-15T15:33:18.157Z,87.84
2022-12-15T15:35:48.498Z,85.67
2022-12-15T15:38:21.445Z,85.49
2022-12-15T15:40:50.821Z,86.48
2022-12-15T15:43:19.179Z,86.48
2022-12-15T15:45:47.558Z,84.62
2022-12-15T15:48:20.470Z,85.95
2022-12-15T15:50:48.267Z,87.33
2022-12-15T15:53:18.368Z,87.97
2022-12-15T15:55:46.167Z,86.79
2022-12-15T15:58:14.072Z,86.72
2022-12-15T16:00:42.108Z,86.47
2022-12-15T16:03:10.126Z,85.41
2022-12-15T16:05:39.371Z,87.83
2022-12-15T16:08:07.449Z,85.42
2022-12-15T16:10:35.382Z,86.19
2022-12-15T16:13:03.225Z,86.21
2022-12-15T16:15:32.663Z,88.16
2022-12-15T16:18:00.471Z,88.91
2022-12-15T16:20:29.942Z,87.00
2022-12-15T16:23:01.964Z,90.20
2022-12-15T16:25:39.763Z,90.60
2022-12-15T16:28:14.167Z,87.18
2022-12-15T16:30:43.085Z,85.45
2022-12-15T16:33:11.462Z,86.82
2022-12-15T16:35:39.823Z,91.15
2022-12-15T16:38:15.143Z,92.17
2022-12-15T16:40:42.917Z,90.93
2022-12-15T16:43:15.068Z,92.42
2022-12-15T16:45:44.574Z,91.07
2022-12-15T16:48:12.706Z,89.72
2022-12-15T16:50:42.319Z,90.68
2022-12-15T16:53:16.324Z,89.12
2022-12-15T16:55:44.480Z,89.78
2022-12-15T16:58:15.968Z,88.39
2022-12-15T17:00:44.643Z,90.09
2022-12-15T17:03:14.433Z,89.15
2022-12-15T17:05:43.765Z,91.14
2022-12-15T17:08:18.294Z,89.48
2022-12-15T17:10:46.572Z,91.14
2022-12-15T17:13:21.628Z,89.40
2022-12-15T17:15:49.391Z,88.63
2022-12-15T17:18:17.167Z,86.67
2022-12-15T17:20:44.864Z,85.07
2022-12-15T17:23:16.089Z,87.12
2022-12-15T17:26:19.649Z,86.65
2022-12-15T17:28:36.608Z,89.04
2022-12-15T17:31:04.841Z,87.80
2022-12-15T17:33:35.607Z,88.86
2022-12-15T17:36:05.787Z,88.85
2022-12-15T17:38:34.944Z,86.87
2022-12-15T17:41:02.717Z,86.21
2022-12-15T17:43:35.582Z,88.37
2022-12-15T17:46:03.757Z,89.36
2022-12-15T17:48:31.533Z,88.80
2022-12-15T17:50:59.468Z,90.36
2022-12-15T17:53:27.290Z,90.21
2022-12-15T17:55:56.327Z,90.18
2022-12-15T17:58:25.488Z,92.36
2022-12-15T18:00:54.252Z,91.74
2022-12-15T18:03:22.673Z,91.95
2022-12-15T18:05:51.810Z,91.15
2022-12-15T18:08:20.979Z,91.60
2022-12-15T18:10:50.949Z,90.23
2022-12-15T18:13:21.223Z,90.66
2022-12-15T18:15:49.435Z,87.30
2022-12-15T18:18:17.962Z,89.57
2022-12-15T18:20:46.116Z,90.45
2022-12-15T18:23:14.976Z,90.42
2022-12-15T18:25:44.014Z,89.70
2022-12-15T18:28:21.941Z,92.51
2022-12-15T18:30:50.377Z,91.63
2022-12-15T18:33:18.122Z,91.36
2022-12-15T18:35:47.786Z,88.55
2022-12-15T18:38:17.302Z,94.40
2022-12-15T18:40:46.521Z,91.91
2022-12-15T18:43:16.448Z,89.33
2022-12-15T18:45:45.760Z,87.92
2022-12-15T18:48:17.376Z,89.26
2022-12-15T18:50:45.575Z,90.63
2022-12-15T18:53:17.571Z,90.86
2022-12-15T18:55:45.253Z,88.23
2022-12-15T18:58:21.060Z,91.28
2022-12-15T19:00:50.421Z,91.09
2022-12-15T19:03:18.621Z,91.52
2022-12-15T19:05:46.520Z,92.47
2022-12-15T19:08:18.037Z,93.10
2022-12-15T19:10:51.301Z,92.37
2022-12-15T19:13:21.018Z,91.83
2022-12-15T19:15:50.015Z,91.75
2022-12-15T19:18:36.448Z,92.80
2022-12-15T19:21:45.399Z,91.12
2022-12-15T19:24:16.264Z,88.12
2022-12-15T19:26:44.375Z,88.61
2022-12-15T19:29:17.819Z,88.78
2022-12-15T19:31:47.368Z,88.40
2022-12-15T19:34:15.405Z,87.49
2022-12-15T19:36:43.144Z,86.39
2022-12-15T19:39:20.460Z,85.24
2022-12-15T19:41:48.240Z,84.79
2022-12-15T19:44:16.612Z,86.21
2022-12-15T19:46:46.515Z,85.35
2022-12-15T19:49:14.956Z,86.49
2022-12-15T19:51:43.432Z,86.87
2022-12-15T19:54:13.489Z,85.66
2022-12-15T19:56:41.285Z,88.21
2022-12-15T19:59:12.036Z,87.73
2022-12-15T20:01:39.844Z,88.78
2022-12-15T20:04:09.399Z,87.60
2022-12-15T20:06:38.417Z,88.11
2022-12-15T20:09:10.138Z,90.34
2022-12-15T20:11:38.807Z,87.02
2022-12-15T20:14:11.412Z,85.16
2022-12-15T20:16:39.177Z,85.88
2022-12-15T20:19:06.941Z,85.87
2022-12-15T20:21:39.199Z,86.36
2022-12-15T20:24:08.851Z,85.06
2022-12-15T20:26:38.745Z,85.40
2022-12-15T20:29:06.832Z,86.01
2022-12-15T20:31:34.873Z,86.97
2022-12-15T20:34:02.564Z,87.93
2022-12-15T20:36:31.487Z,87.28
2022-12-15T20:39:01.185Z,89.11
2022-12-15T20:41:30.407Z,90.51
2022-12-15T20:43:58.926Z,91.00
2022-12-15T20:46:28.352Z,90.74
2022-12-15T20:48:56.685Z,90.80
2022-12-15T20:51:26.269Z,90.83
2022-12-15T20:53:55.797Z,89.55
2022-12-15T20:56:25.317Z,88.89
2022-12-15T20:58:53.999Z,86.36
2022-12-15T21:01:24.059Z,87.94
2022-12-15T21:03:52.964Z,88.10
2022-12-15T21:06:21.141Z,88.47
2022-12-15T21:08:49.433Z,86.73
2022-12-15T21:11:19.440Z,85.68
2022-12-15T21:13:49.845Z,85.47
2022-12-15T21:16:19.686Z,86.72
2022-12-15T21:21:37.530Z,84.14
2022-12-15T21:24:14.557Z,83.09
2022-12-15T21:26:42.549Z,82.69
2022-12-15T21:29:14.159Z,84.04
2022-12-15T21:31:42.380Z,84.69
2022-12-15T21:34:10.215Z,85.87
2022-12-15T21:36:38.699Z,85.98
2022-12-15T21:39:07.664Z,86.50
2022-12-15T21:41:36.026Z,87.03
2022-12-15T21:44:03.683Z,87.38
2022-12-15T21:46:32.813Z,86.56
2022-12-15T21:49:23.572Z,85.51
2022-12-15T21:51:53.350Z,87.50
2022-12-15T21:54:30.422Z,86.34
2022-12-15T21:56:58.679Z,88.92
2022-12-15T21:59:28.243Z,88.48
2022-12-15T22:01:57.552Z,87.54
2022-12-15T22:04:27.982Z,85.99
2022-12-15T22:06:55.681Z,86.49
2022-12-15T22:09:23.440Z,84.08
2022-12-15T22:11:53.646Z,82.05
2022-12-15T22:14:25.594Z,83.11
2022-12-15T22:16:53.804Z,81.92
2022-12-15T22:19:24.267Z,81.58
2022-12-15T22:21:52.297Z,81.14
2022-12-15T22:24:20.821Z,80.98
2022-12-15T22:26:48.735Z,82.02
2022-12-15T22:29:18.696Z,83.04
2022-12-15T22:31:46.418Z,81.54
2022-12-15T22:34:15.794Z,81.34
2022-12-15T22:36:45.253Z,82.79
2022-12-15T22:39:14.786Z,83.41
2022-12-15T22:41:43.791Z,84.05
2022-12-15T22:44:16.948Z,82.24
2022-12-15T22:46:44.824Z,83.03
2022-12-15T22:49:15.433Z,83.21
2022-12-15T22:51:44.730Z,82.08
2022-12-15T22:54:18.904Z,82.74
2022-12-15T22:56:47.394Z,82.65
2022-12-15T22:59:20.041Z,83.79
2022-12-15T23:01:47.786Z,84.08
2022-12-15T23:04:15.629Z,81.69
2022-12-15T23:06:45.376Z,81.76
2022-12-15T23:09:13.160Z,81.29
2022-12-15T23:11:41.400Z,83.59
2022-12-15T23:14:11.740Z,83.87
2022-12-15T23:16:39.102Z,82.16
2022-12-15T23:19:08.635Z,81.47
2022-12-15T23:21:36.764Z,81.07
2022-12-15T23:24:06.092Z,82.15
2022-12-15T23:26:33.889Z,79.32
2022-12-15T23:29:02.117Z,80.14
2022-12-15T23:31:30.158Z,80.22
2022-12-15T23:33:57.924Z,83.30
2022-12-15T23:36:25.593Z,82.27
2022-12-15T23:38:55.104Z,83.93
2022-12-15T23:41:24.229Z,80.29
2022-12-15T23:43:51.925Z,80.02
2022-12-15T23:46:19.725Z,79.36
2022-12-15T23:48:47.480Z,78.45
2022-12-15T23:51:17.008Z,77.78
2022-12-15T23:53:45.808Z,79.46
2022-12-15T23:56:15.045Z,77.76
2022-12-15T23:58:45.048Z,80.54
